sensor_id;sensor_type;location;lat;lon;timestamp;noise_LAeq;noise_LA_min;noise_LA_max;noise_LA01;noise_LA95
41518;Laerm;27249;48.094;-1.690;2023-12-20T00:02:20;54.50;43.39;65.13;;
41518;Laerm;27249;48.094;-1.690;2023-12-20T00:04:45;46.34;41.82;55.51;;
41518;Laerm;27249;48.094;-1.690;2023-12-20T00:07:10;47.82;41.46;60.86;;
41518;Laerm;27249;48.094;-1.690;2023-12-20T00:09:36;50.87;42.09;60.50;;
41518;Laerm;27249;48.094;-1.690;2023-12-20T00:12:01;51.89;42.09;67.09;;
41518;Laerm;27249;48.094;-1.690;2023-12-20T00:14:26;51.29;42.53;61.23;;
41518;Laerm;27249;48.094;-1.690;2023-12-20T00:16:51;49.68;42.03;61.99;;
41518;Laerm;27249;48.094;-1.690;2023-12-20T00:19:16;47.24;41.61;55.53;;
41518;Laerm;27249;48.094;-1.690;2023-12-20T00:21:42;48.46;42.09;58.82;;
41518;Laerm;27249;48.094;-1.690;2023-12-20T00:24:07;52.63;41.68;62.20;;
41518;Laerm;27249;48.094;-1.690;2023-12-20T00:26:32;45.59;41.96;56.44;;
41518;Laerm;27249;48.094;-1.690;2023-12-20T00:28:58;51.10;42.41;65.18;;
41518;Laerm;27249;48.094;-1.690;2023-12-20T00:31:23;49.92;41.75;62.72;;
41518;Laerm;27249;48.094;-1.690;2023-12-20T00:33:48;44.98;42.29;51.64;;
41518;Laerm;27249;48.094;-1.690;2023-12-20T00:36:13;49.46;42.09;60.81;;
41518;Laerm;27249;48.094;-1.690;2023-12-20T00:38:38;45.54;41.68;66.03;;
41518;Laerm;27249;48.094;-1.690;2023-12-20T00:41:04;50.83;42.09;61.43;;
41518;Laerm;27249;48.094;-1.690;2023-12-20T00:43:29;47.22;42.35;57.94;;
41518;Laerm;27249;48.094;-1.690;2023-12-20T00:45:54;49.54;42.16;60.50;;
41518;Laerm;27249;48.094;-1.690;2023-12-20T00:48:20;44.31;42.29;48.61;;
41518;Laerm;27249;48.094;-1.690;2023-12-20T00:50:45;45.92;41.68;55.21;;
41518;Laerm;27249;48.094;-1.690;2023-12-20T00:53:10;48.61;41.96;62.89;;
41518;Laerm;27249;48.094;-1.690;2023-12-20T00:55:36;48.49;41.61;62.18;;
41518;Laerm;27249;48.094;-1.690;2023-12-20T00:58:01;45.68;42.09;57.96;;
41518;Laerm;27249;48.094;-1.690;2023-12-20T01:00:26;48.63;42.47;61.63;;
41518;Laerm;27249;48.094;-1.690;2023-12-20T01:02:52;46.14;42.47;55.64;;
41518;Laerm;27249;48.094;-1.690;2023-12-20T01:05:18;52.12;42.47;65.92;;
41518;Laerm;27249;48.094;-1.690;2023-12-20T01:07:43;45.30;41.53;54.01;;
41518;Laerm;27249;48.094;-1.690;2023-12-20T01:10:08;44.47;41.38;50.25;;
41518;Laerm;27249;48.094;-1.690;2023-12-20T01:12:33;50.08;42.29;62.13;;
41518;Laerm;27249;48.094;-1.690;2023-12-20T01:14:59;50.43;42.93;61.67;;
41518;Laerm;27249;48.094;-1.690;2023-12-20T01:17:24;53.78;42.35;66.62;;
41518;Laerm;27249;48.094;-1.690;2023-12-20T01:19:49;50.30;42.09;64.05;;
41518;Laerm;27249;48.094;-1.690;2023-12-20T01:22:14;46.03;41.89;58.79;;
41518;Laerm;27249;48.094;-1.690;2023-12-20T01:24:40;47.61;42.09;63.63;;
41518;Laerm;27249;48.094;-1.690;2023-12-20T01:27:05;44.22;41.46;46.45;;
41518;Laerm;27249;48.094;-1.690;2023-12-20T01:29:30;46.93;42.65;57.56;;
41518;Laerm;27249;48.094;-1.690;2023-12-20T01:31:55;48.19;42.22;60.30;;
41518;Laerm;27249;48.094;-1.690;2023-12-20T01:34:20;46.96;41.61;57.78;;
41518;Laerm;27249;48.094;-1.690;2023-12-20T01:36:46;50.31;42.09;61.54;;
41518;Laerm;27249;48.094;-1.690;2023-12-20T01:39:11;47.52;41.26;61.88;;
41518;Laerm;27249;48.094;-1.690;2023-12-20T01:41:36;45.59;42.19;54.07;;
41518;Laerm;27249;48.094;-1.690;2023-12-20T01:44:01;46.93;41.11;61.86;;
41518;Laerm;27249;48.094;-1.690;2023-12-20T01:46:26;49.78;42.35;58.98;;
41518;Laerm;27249;48.094;-1.690;2023-12-20T01:48:52;44.22;41.82;48.74;;
41518;Laerm;27249;48.094;-1.690;2023-12-20T01:51:18;44.90;42.16;48.69;;
41518;Laerm;27249;48.094;-1.690;2023-12-20T01:53:44;49.00;42.88;58.58;;
41518;Laerm;27249;48.094;-1.690;2023-12-20T01:56:09;49.15;41.82;63.44;;
41518;Laerm;27249;48.094;-1.690;2023-12-20T01:58:37;46.94;42.53;56.60;;
41518;Laerm;27249;48.094;-1.690;2023-12-20T02:01:04;44.52;42.16;48.13;;
41518;Laerm;27249;48.094;-1.690;2023-12-20T02:03:29;48.59;42.98;61.86;;
41518;Laerm;27249;48.094;-1.690;2023-12-20T02:05:54;51.63;42.76;61.84;;
41518;Laerm;27249;48.094;-1.690;2023-12-20T02:08:19;48.68;41.14;60.35;;
41518;Laerm;27249;48.094;-1.690;2023-12-20T02:10:44;44.18;41.82;48.37;;
41518;Laerm;27249;48.094;-1.690;2023-12-20T02:13:10;45.66;39.92;56.23;;
41518;Laerm;27249;48.094;-1.690;2023-12-20T02:15:35;45.56;41.46;56.10;;
41518;Laerm;27249;48.094;-1.690;2023-12-20T02:18:02;46.17;41.22;57.60;;
41518;Laerm;27249;48.094;-1.690;2023-12-20T02:20:27;44.38;42.16;48.08;;
41518;Laerm;27249;48.094;-1.690;2023-12-20T02:22:52;44.86;42.71;50.49;;
41518;Laerm;27249;48.094;-1.690;2023-12-20T02:25:17;44.83;42.35;48.61;;
41518;Laerm;27249;48.094;-1.690;2023-12-20T02:27:43;48.68;43.24;61.34;;
41518;Laerm;27249;48.094;-1.690;2023-12-20T02:30:09;51.56;42.85;64.56;;
41518;Laerm;27249;48.094;-1.690;2023-12-20T02:32:35;45.65;42.71;55.70;;
41518;Laerm;27249;48.094;-1.690;2023-12-20T02:35:00;45.22;42.47;52.50;;
41518;Laerm;27249;48.094;-1.690;2023-12-20T02:37:25;49.91;42.76;62.56;;
41518;Laerm;27249;48.094;-1.690;2023-12-20T02:39:50;45.47;43.09;51.42;;
41518;Laerm;27249;48.094;-1.690;2023-12-20T02:42:16;45.25;43.00;50.00;;
41518;Laerm;27249;48.094;-1.690;2023-12-20T02:44:41;52.44;42.82;67.15;;
41518;Laerm;27249;48.094;-1.690;2023-12-20T02:47:06;48.62;43.24;59.95;;
41518;Laerm;27249;48.094;-1.690;2023-12-20T02:49:31;47.00;43.49;57.19;;
41518;Laerm;27249;48.094;-1.690;2023-12-20T02:51:56;45.88;42.71;54.14;;
41518;Laerm;27249;48.094;-1.690;2023-12-20T02:54:22;51.78;43.49;66.42;;
41518;Laerm;27249;48.094;-1.690;2023-12-20T02:56:47;49.15;43.29;61.68;;
41518;Laerm;27249;48.094;-1.690;2023-12-20T02:59:12;50.38;43.19;63.56;;
41518;Laerm;27249;48.094;-1.690;2023-12-20T03:01:44;49.31;42.98;74.73;;
41518;Laerm;27249;48.094;-1.690;2023-12-20T03:04:10;47.64;43.54;64.30;;
41518;Laerm;27249;48.094;-1.690;2023-12-20T03:06:35;46.19;43.19;58.35;;
41518;Laerm;27249;48.094;-1.690;2023-12-20T03:09:00;47.20;43.19;58.51;;
41518;Laerm;27249;48.094;-1.690;2023-12-20T03:11:29;47.72;43.09;61.93;;
41518;Laerm;27249;48.094;-1.690;2023-12-20T03:13:54;49.25;42.76;59.03;;
41518;Laerm;27249;48.094;-1.690;2023-12-20T03:16:19;49.72;43.39;61.04;;
41518;Laerm;27249;48.094;-1.690;2023-12-20T03:18:45;50.22;43.49;63.59;;
41518;Laerm;27249;48.094;-1.690;2023-12-20T03:21:10;49.52;43.39;62.74;;
41518;Laerm;27249;48.094;-1.690;2023-12-20T03:23:35;50.49;43.58;62.54;;
41518;Laerm;27249;48.094;-1.690;2023-12-20T03:26:00;49.53;42.98;57.68;;
41518;Laerm;27249;48.094;-1.690;2023-12-20T03:28:27;50.48;43.39;63.93;;
41518;Laerm;27249;48.094;-1.690;2023-12-20T03:30:52;52.03;43.72;64.63;;
41518;Laerm;27249;48.094;-1.690;2023-12-20T03:33:18;50.42;43.44;61.34;;
41518;Laerm;27249;48.094;-1.690;2023-12-20T03:35:43;51.03;44.35;65.96;;
41518;Laerm;27249;48.094;-1.690;2023-12-20T03:38:08;46.23;44.07;54.07;;
41518;Laerm;27249;48.094;-1.690;2023-12-20T03:40:34;52.70;44.15;65.54;;
41518;Laerm;27249;48.094;-1.690;2023-12-20T03:42:59;49.73;44.07;63.67;;
41518;Laerm;27249;48.094;-1.690;2023-12-20T03:45:26;52.00;44.12;62.41;;
41518;Laerm;27249;48.094;-1.690;2023-12-20T03:47:51;48.36;44.39;58.72;;
41518;Laerm;27249;48.094;-1.690;2023-12-20T03:50:24;49.16;44.11;56.42;;
41518;Laerm;27249;48.094;-1.690;2023-12-20T03:52:50;53.11;44.15;62.82;;
41518;Laerm;27249;48.094;-1.690;2023-12-20T03:55:15;52.55;44.11;63.12;;
41518;Laerm;27249;48.094;-1.690;2023-12-20T03:57:40;50.57;44.23;59.41;;
41518;Laerm;27249;48.094;-1.690;2023-12-20T04:00:06;46.87;44.11;52.59;;
41518;Laerm;27249;48.094;-1.690;2023-12-20T04:02:35;53.73;44.47;64.74;;
41518;Laerm;27249;48.094;-1.690;2023-12-20T04:05:00;46.35;43.86;50.77;;
41518;Laerm;27249;48.094;-1.690;2023-12-20T04:07:26;50.61;43.54;63.92;;
41518;Laerm;27249;48.094;-1.690;2023-12-20T04:09:51;48.20;44.38;57.58;;
41518;Laerm;27249;48.094;-1.690;2023-12-20T04:12:16;48.42;43.49;59.69;;
41518;Laerm;27249;48.094;-1.690;2023-12-20T04:14:41;47.48;43.86;54.31;;
41518;Laerm;27249;48.094;-1.690;2023-12-20T04:17:06;46.96;44.04;51.57;;
41518;Laerm;27249;48.094;-1.690;2023-12-20T04:19:31;45.80;43.54;49.51;;
41518;Laerm;27249;48.094;-1.690;2023-12-20T04:21:57;51.26;44.19;62.28;;
41518;Laerm;27249;48.094;-1.690;2023-12-20T04:24:22;50.70;44.69;64.01;;
41518;Laerm;27249;48.094;-1.690;2023-12-20T04:26:47;54.68;44.90;69.05;;
41518;Laerm;27249;48.094;-1.690;2023-12-20T04:29:13;51.75;45.33;61.06;;
41518;Laerm;27249;48.094;-1.690;2023-12-20T04:31:40;52.84;45.60;61.08;;
41518;Laerm;27249;48.094;-1.690;2023-12-20T04:34:05;52.46;45.01;61.37;;
41518;Laerm;27249;48.094;-1.690;2023-12-20T04:36:30;51.68;45.86;70.82;;
41518;Laerm;27249;48.094;-1.690;2023-12-20T04:38:56;52.07;46.05;61.77;;
41518;Laerm;27249;48.094;-1.690;2023-12-20T04:41:21;52.21;44.76;60.61;;
41518;Laerm;27249;48.094;-1.690;2023-12-20T04:43:46;47.58;44.83;57.47;;
41518;Laerm;27249;48.094;-1.690;2023-12-20T04:46:11;48.09;45.27;52.29;;
41518;Laerm;27249;48.094;-1.690;2023-12-20T04:48:36;50.65;45.11;59.58;;
41518;Laerm;27249;48.094;-1.690;2023-12-20T04:51:02;51.49;45.54;62.23;;
41518;Laerm;27249;48.094;-1.690;2023-12-20T04:53:27;52.71;45.17;61.48;;
41518;Laerm;27249;48.094;-1.690;2023-12-20T04:55:53;51.56;46.23;59.02;;
41518;Laerm;27249;48.094;-1.690;2023-12-20T04:58:19;55.50;47.48;77.35;;
41518;Laerm;27249;48.094;-1.690;2023-12-20T05:00:44;54.83;47.22;75.06;;
41518;Laerm;27249;48.094;-1.690;2023-12-20T05:03:09;55.07;46.20;66.03;;
41518;Laerm;27249;48.094;-1.690;2023-12-20T05:05:35;55.17;45.89;67.46;;
41518;Laerm;27249;48.094;-1.690;2023-12-20T05:08:00;53.47;45.63;64.67;;
41518;Laerm;27249;48.094;-1.690;2023-12-20T05:10:26;54.19;45.66;64.76;;
41518;Laerm;27249;48.094;-1.690;2023-12-20T05:12:52;53.66;46.18;65.56;;
41518;Laerm;27249;48.094;-1.690;2023-12-20T05:15:17;53.21;46.20;65.24;;
41518;Laerm;27249;48.094;-1.690;2023-12-20T05:17:42;53.09;47.02;61.70;;
41518;Laerm;27249;48.094;-1.690;2023-12-20T05:20:07;52.80;46.50;64.05;;
41518;Laerm;27249;48.094;-1.690;2023-12-20T05:22:33;53.72;47.42;65.38;;
41518;Laerm;27249;48.094;-1.690;2023-12-20T05:24:58;52.71;46.69;61.39;;
41518;Laerm;27249;48.094;-1.690;2023-12-20T05:27:24;55.20;48.20;64.41;;
41518;Laerm;27249;48.094;-1.690;2023-12-20T05:29:49;53.04;47.52;65.42;;
41518;Laerm;27249;48.094;-1.690;2023-12-20T05:32:15;53.18;47.22;63.28;;
41518;Laerm;27249;48.094;-1.690;2023-12-20T05:34:40;52.85;46.64;62.14;;
41518;Laerm;27249;48.094;-1.690;2023-12-20T05:37:06;54.03;48.21;61.64;;
41518;Laerm;27249;48.094;-1.690;2023-12-20T05:39:31;55.77;49.50;64.72;;
41518;Laerm;27249;48.094;-1.690;2023-12-20T05:41:56;56.04;48.15;63.81;;
41518;Laerm;27249;48.094;-1.690;2023-12-20T05:44:21;54.45;48.28;73.17;;
41518;Laerm;27249;48.094;-1.690;2023-12-20T05:46:47;55.21;48.67;64.11;;
41518;Laerm;27249;48.094;-1.690;2023-12-20T05:49:12;58.49;50.60;78.84;;
41518;Laerm;27249;48.094;-1.690;2023-12-20T05:51:38;56.72;49.87;65.01;;
41518;Laerm;27249;48.094;-1.690;2023-12-20T05:54:03;57.75;51.80;66.20;;
41518;Laerm;27249;48.094;-1.690;2023-12-20T05:56:29;55.94;50.68;68.58;;
41518;Laerm;27249;48.094;-1.690;2023-12-20T05:58:54;56.69;49.51;77.88;;
41518;Laerm;27249;48.094;-1.690;2023-12-20T06:01:19;56.89;50.25;75.19;;
41518;Laerm;27249;48.094;-1.690;2023-12-20T06:03:44;57.67;50.57;70.08;;
41518;Laerm;27249;48.094;-1.690;2023-12-20T06:06:11;59.92;53.25;79.55;;
41518;Laerm;27249;48.094;-1.690;2023-12-20T06:08:37;58.64;51.59;73.22;;
41518;Laerm;27249;48.094;-1.690;2023-12-20T06:11:02;56.84;51.22;63.75;;
41518;Laerm;27249;48.094;-1.690;2023-12-20T06:13:28;58.43;50.68;64.47;;
41518;Laerm;27249;48.094;-1.690;2023-12-20T06:15:56;56.16;51.77;62.17;;
41518;Laerm;27249;48.094;-1.690;2023-12-20T06:18:21;57.25;51.50;72.78;;
41518;Laerm;27249;48.094;-1.690;2023-12-20T06:20:47;57.69;51.84;64.44;;
41518;Laerm;27249;48.094;-1.690;2023-12-20T06:23:12;58.36;51.38;64.01;;
41518;Laerm;27249;48.094;-1.690;2023-12-20T06:25:37;58.08;52.77;70.23;;
41518;Laerm;27249;48.094;-1.690;2023-12-20T06:28:02;58.50;51.35;65.92;;
41518;Laerm;27249;48.094;-1.690;2023-12-20T06:30:28;60.94;51.73;81.48;;
41518;Laerm;27249;48.094;-1.690;2023-12-20T06:32:53;58.27;50.88;62.86;;
41518;Laerm;27249;48.094;-1.690;2023-12-20T06:35:19;56.87;51.34;63.41;;
41518;Laerm;27249;48.094;-1.690;2023-12-20T06:37:44;58.94;53.36;65.27;;
41518;Laerm;27249;48.094;-1.690;2023-12-20T06:40:10;60.76;55.32;69.91;;
41518;Laerm;27249;48.094;-1.690;2023-12-20T06:42:35;58.49;53.23;64.25;;
41518;Laerm;27249;48.094;-1.690;2023-12-20T06:45:00;58.98;54.16;64.76;;
41518;Laerm;27249;48.094;-1.690;2023-12-20T06:47:25;59.26;53.67;66.60;;
41518;Laerm;27249;48.094;-1.690;2023-12-20T06:49:51;61.11;53.58;79.92;;
41518;Laerm;27249;48.094;-1.690;2023-12-20T06:52:16;58.49;52.08;67.57;;
41518;Laerm;27249;48.094;-1.690;2023-12-20T06:54:41;59.88;53.62;71.13;;
41518;Laerm;27249;48.094;-1.690;2023-12-20T06:57:07;58.94;54.85;68.71;;
41518;Laerm;27249;48.094;-1.690;2023-12-20T06:59:32;58.58;53.54;66.80;;
41518;Laerm;27249;48.094;-1.690;2023-12-20T07:01:57;59.07;55.20;64.39;;
41518;Laerm;27249;48.094;-1.690;2023-12-20T07:04:22;59.46;55.34;65.53;;
41518;Laerm;27249;48.094;-1.690;2023-12-20T07:06:48;59.16;52.86;71.49;;
41518;Laerm;27249;48.094;-1.690;2023-12-20T07:09:15;59.20;54.21;67.48;;
41518;Laerm;27249;48.094;-1.690;2023-12-20T07:11:40;58.50;51.97;63.82;;
41518;Laerm;27249;48.094;-1.690;2023-12-20T07:14:06;56.98;52.60;63.17;;
41518;Laerm;27249;48.094;-1.690;2023-12-20T07:16:31;59.55;52.31;65.60;;
41518;Laerm;27249;48.094;-1.690;2023-12-20T07:18:56;59.21;54.36;71.20;;
41518;Laerm;27249;48.094;-1.690;2023-12-20T07:21:22;57.73;54.04;63.39;;
41518;Laerm;27249;48.094;-1.690;2023-12-20T07:23:47;58.47;52.19;66.74;;
41518;Laerm;27249;48.094;-1.690;2023-12-20T07:26:12;58.07;52.62;66.28;;
41518;Laerm;27249;48.094;-1.690;2023-12-20T07:28:38;57.98;52.36;64.82;;
41518;Laerm;27249;48.094;-1.690;2023-12-20T07:31:03;57.96;50.73;64.61;;
41518;Laerm;27249;48.094;-1.690;2023-12-20T07:33:28;58.66;54.71;65.06;;
41518;Laerm;27249;48.094;-1.690;2023-12-20T07:35:53;61.51;55.68;73.58;;
41518;Laerm;27249;48.094;-1.690;2023-12-20T07:38:19;59.13;53.88;64.51;;
41518;Laerm;27249;48.094;-1.690;2023-12-20T07:40:44;58.74;53.49;67.68;;
41518;Laerm;27249;48.094;-1.690;2023-12-20T07:43:09;58.14;53.32;63.58;;
41518;Laerm;27249;48.094;-1.690;2023-12-20T07:45:35;59.24;54.92;64.19;;
41518;Laerm;27249;48.094;-1.690;2023-12-20T07:48:00;59.26;54.67;65.39;;
41518;Laerm;27249;48.094;-1.690;2023-12-20T07:50:25;64.32;54.34;89.19;;
41518;Laerm;27249;48.094;-1.690;2023-12-20T07:52:51;59.37;54.22;64.24;;
41518;Laerm;27249;48.094;-1.690;2023-12-20T07:55:16;58.33;53.26;62.28;;
41518;Laerm;27249;48.094;-1.690;2023-12-20T07:57:41;60.00;54.97;66.72;;
41518;Laerm;27249;48.094;-1.690;2023-12-20T08:00:07;59.84;54.74;66.99;;
41518;Laerm;27249;48.094;-1.690;2023-12-20T08:02:32;60.42;55.39;65.27;;
41518;Laerm;27249;48.094;-1.690;2023-12-20T08:04:57;61.41;54.67;70.92;;
41518;Laerm;27249;48.094;-1.690;2023-12-20T08:07:22;59.96;54.01;67.46;;
41518;Laerm;27249;48.094;-1.690;2023-12-20T08:09:48;59.11;53.36;67.14;;
41518;Laerm;27249;48.094;-1.690;2023-12-20T08:12:13;58.76;53.73;65.39;;
41518;Laerm;27249;48.094;-1.690;2023-12-20T08:14:38;60.01;56.06;65.19;;
41518;Laerm;27249;48.094;-1.690;2023-12-20T08:17:03;59.27;54.32;64.73;;
41518;Laerm;27249;48.094;-1.690;2023-12-20T08:19:28;58.87;52.02;66.11;;
41518;Laerm;27249;48.094;-1.690;2023-12-20T08:21:54;59.75;51.64;66.85;;
41518;Laerm;27249;48.094;-1.690;2023-12-20T08:24:19;58.62;52.54;65.65;;
41518;Laerm;27249;48.094;-1.690;2023-12-20T08:26:44;59.93;55.20;68.47;;
41518;Laerm;27249;48.094;-1.690;2023-12-20T08:29:12;57.71;52.63;65.44;;
41518;Laerm;27249;48.094;-1.690;2023-12-20T08:31:37;59.34;53.79;72.99;;
41518;Laerm;27249;48.094;-1.690;2023-12-20T08:34:03;58.33;52.69;65.55;;
41518;Laerm;27249;48.094;-1.690;2023-12-20T08:36:28;59.61;54.25;66.25;;
41518;Laerm;27249;48.094;-1.690;2023-12-20T08:38:53;60.24;54.71;78.82;;
41518;Laerm;27249;48.094;-1.690;2023-12-20T08:41:20;58.81;54.59;69.43;;
41518;Laerm;27249;48.094;-1.690;2023-12-20T08:43:45;58.71;54.37;64.20;;
41518;Laerm;27249;48.094;-1.690;2023-12-20T08:46:11;58.65;54.36;64.24;;
41518;Laerm;27249;48.094;-1.690;2023-12-20T08:48:37;60.53;55.07;66.74;;
41518;Laerm;27249;48.094;-1.690;2023-12-20T08:51:02;58.73;53.16;64.60;;
41518;Laerm;27249;48.094;-1.690;2023-12-20T08:53:28;58.90;52.49;65.12;;
41518;Laerm;27249;48.094;-1.690;2023-12-20T08:55:53;59.42;53.98;65.73;;
41518;Laerm;27249;48.094;-1.690;2023-12-20T08:58:18;58.18;51.62;65.46;;
41518;Laerm;27249;48.094;-1.690;2023-12-20T09:00:44;59.06;53.50;66.19;;
41518;Laerm;27249;48.094;-1.690;2023-12-20T09:03:09;59.65;53.51;70.80;;
41518;Laerm;27249;48.094;-1.690;2023-12-20T09:05:34;58.65;53.31;65.57;;
41518;Laerm;27249;48.094;-1.690;2023-12-20T09:07:59;59.03;53.05;68.52;;
41518;Laerm;27249;48.094;-1.690;2023-12-20T09:10:25;59.74;54.23;65.44;;
41518;Laerm;27249;48.094;-1.690;2023-12-20T09:12:50;59.43;53.33;66.12;;
41518;Laerm;27249;48.094;-1.690;2023-12-20T09:15:16;58.95;52.91;63.67;;
41518;Laerm;27249;48.094;-1.690;2023-12-20T09:17:41;69.43;56.36;84.73;;
41518;Laerm;27249;48.094;-1.690;2023-12-20T09:20:07;58.73;52.33;64.93;;
41518;Laerm;27249;48.094;-1.690;2023-12-20T09:22:33;59.04;54.34;65.73;;
41518;Laerm;27249;48.094;-1.690;2023-12-20T09:24:58;62.35;55.35;76.48;;
41518;Laerm;27249;48.094;-1.690;2023-12-20T09:27:23;60.09;54.19;73.24;;
41518;Laerm;27249;48.094;-1.690;2023-12-20T09:29:49;58.77;53.79;63.35;;
41518;Laerm;27249;48.094;-1.690;2023-12-20T09:32:14;58.69;53.82;63.94;;
41518;Laerm;27249;48.094;-1.690;2023-12-20T09:34:40;58.95;54.54;64.04;;
41518;Laerm;27249;48.094;-1.690;2023-12-20T09:37:06;58.27;52.82;63.11;;
41518;Laerm;27249;48.094;-1.690;2023-12-20T09:39:33;60.17;54.80;71.80;;
41518;Laerm;27249;48.094;-1.690;2023-12-20T09:42:02;60.30;54.40;73.75;;
41518;Laerm;27249;48.094;-1.690;2023-12-20T09:44:28;58.18;52.58;65.55;;
41518;Laerm;27249;48.094;-1.690;2023-12-20T09:46:54;59.29;54.41;70.14;;
41518;Laerm;27249;48.094;-1.690;2023-12-20T09:49:20;60.87;54.37;71.77;;
41518;Laerm;27249;48.094;-1.690;2023-12-20T09:51:46;59.21;54.75;64.14;;
41518;Laerm;27249;48.094;-1.690;2023-12-20T09:54:12;59.43;54.85;65.70;;
41518;Laerm;27249;48.094;-1.690;2023-12-20T09:56:38;58.89;53.54;63.70;;
41518;Laerm;27249;48.094;-1.690;2023-12-20T09:59:04;59.75;54.16;68.91;;
41518;Laerm;27249;48.094;-1.690;2023-12-20T10:01:29;59.32;52.22;66.53;;
41518;Laerm;27249;48.094;-1.690;2023-12-20T10:03:55;58.88;52.99;74.79;;
41518;Laerm;27249;48.094;-1.690;2023-12-20T10:06:21;58.70;54.45;71.28;;
41518;Laerm;27249;48.094;-1.690;2023-12-20T10:08:48;59.88;55.03;66.91;;
41518;Laerm;27249;48.094;-1.690;2023-12-20T10:11:13;58.87;52.57;68.52;;
41518;Laerm;27249;48.094;-1.690;2023-12-20T10:13:39;58.95;54.36;64.28;;
41518;Laerm;27249;48.094;-1.690;2023-12-20T10:16:06;58.35;53.30;65.07;;
41518;Laerm;27249;48.094;-1.690;2023-12-20T10:18:32;58.44;52.58;63.64;;
41518;Laerm;27249;48.094;-1.690;2023-12-20T10:20:57;58.24;54.32;63.33;;
41518;Laerm;27249;48.094;-1.690;2023-12-20T10:23:23;58.22;52.92;69.48;;
41518;Laerm;27249;48.094;-1.690;2023-12-20T10:26:00;59.09;55.60;63.27;;
41518;Laerm;27249;48.094;-1.690;2023-12-20T10:28:25;58.68;53.37;66.16;;
41518;Laerm;27249;48.094;-1.690;2023-12-20T10:30:54;59.23;52.99;67.52;;
41518;Laerm;27249;48.094;-1.690;2023-12-20T10:33:28;59.05;53.11;70.69;;
41518;Laerm;27249;48.094;-1.690;2023-12-20T10:35:53;58.38;51.84;67.25;;
41518;Laerm;27249;48.094;-1.690;2023-12-20T10:38:19;59.15;53.53;66.20;;
41518;Laerm;27249;48.094;-1.690;2023-12-20T10:40:45;60.19;54.44;74.11;;
41518;Laerm;27249;48.094;-1.690;2023-12-20T10:43:10;59.91;54.77;67.68;;
41518;Laerm;27249;48.094;-1.690;2023-12-20T10:45:36;59.08;53.82;65.40;;
41518;Laerm;27249;48.094;-1.690;2023-12-20T10:48:01;57.76;53.38;66.28;;
41518;Laerm;27249;48.094;-1.690;2023-12-20T10:50:27;59.36;53.93;67.17;;
41518;Laerm;27249;48.094;-1.690;2023-12-20T10:52:54;58.95;53.52;69.95;;
41518;Laerm;27249;48.094;-1.690;2023-12-20T10:55:21;58.38;53.07;64.43;;
41518;Laerm;27249;48.094;-1.690;2023-12-20T10:57:46;59.01;52.11;65.21;;
41518;Laerm;27249;48.094;-1.690;2023-12-20T11:00:15;59.25;53.44;67.82;;
41518;Laerm;27249;48.094;-1.690;2023-12-20T11:02:42;60.16;53.89;72.99;;
41518;Laerm;27249;48.094;-1.690;2023-12-20T11:08:01;58.92;53.51;64.85;;
41518;Laerm;27249;48.094;-1.690;2023-12-20T11:10:37;58.70;52.98;71.38;;
41518;Laerm;27249;48.094;-1.690;2023-12-20T11:13:20;58.03;53.02;67.95;;
41518;Laerm;27249;48.094;-1.690;2023-12-20T11:15:47;58.84;52.95;64.94;;
41518;Laerm;27249;48.094;-1.690;2023-12-20T11:18:13;59.33;54.69;74.27;;
41518;Laerm;27249;48.094;-1.690;2023-12-20T11:20:39;58.36;52.28;69.05;;
41518;Laerm;27249;48.094;-1.690;2023-12-20T11:23:05;58.95;54.02;66.20;;
41518;Laerm;27249;48.094;-1.690;2023-12-20T11:28:32;57.81;52.97;69.79;;
41518;Laerm;27249;48.094;-1.690;2023-12-20T11:30:58;58.37;52.69;70.57;;
41518;Laerm;27249;48.094;-1.690;2023-12-20T11:33:57;59.38;54.79;67.36;;
41518;Laerm;27249;48.094;-1.690;2023-12-20T11:36:19;58.42;51.26;64.02;;
41518;Laerm;27249;48.094;-1.690;2023-12-20T11:38:58;59.04;53.00;73.42;;
41518;Laerm;27249;48.094;-1.690;2023-12-20T11:41:25;58.40;52.55;71.11;;
41518;Laerm;27249;48.094;-1.690;2023-12-20T11:43:53;58.67;52.76;67.25;;
41518;Laerm;27249;48.094;-1.690;2023-12-20T11:46:18;60.53;51.56;74.29;;
41518;Laerm;27249;48.094;-1.690;2023-12-20T11:48:43;58.38;53.38;65.34;;
41518;Laerm;27249;48.094;-1.690;2023-12-20T11:51:12;58.36;51.33;69.65;;
41518;Laerm;27249;48.094;-1.690;2023-12-20T11:53:38;59.53;51.95;64.73;;
41518;Laerm;27249;48.094;-1.690;2023-12-20T11:56:04;58.52;51.98;69.64;;
41518;Laerm;27249;48.094;-1.690;2023-12-20T11:58:30;57.50;52.06;62.63;;
41518;Laerm;27249;48.094;-1.690;2023-12-20T12:00:56;58.41;51.44;66.04;;
41518;Laerm;27249;48.094;-1.690;2023-12-20T12:03:21;58.39;53.17;62.88;;
41518;Laerm;27249;48.094;-1.690;2023-12-20T12:05:48;58.00;49.11;69.38;;
41518;Laerm;27249;48.094;-1.690;2023-12-20T12:08:13;58.57;52.43;66.96;;
41518;Laerm;27249;48.094;-1.690;2023-12-20T12:10:39;58.88;53.16;64.56;;
41518;Laerm;27249;48.094;-1.690;2023-12-20T12:13:04;59.08;53.65;68.21;;
41518;Laerm;27249;48.094;-1.690;2023-12-20T12:15:29;58.47;49.15;64.40;;
41518;Laerm;27249;48.094;-1.690;2023-12-20T12:17:55;60.51;52.12;73.97;;
41518;Laerm;27249;48.094;-1.690;2023-12-20T12:20:21;58.57;51.78;64.77;;
41518;Laerm;27249;48.094;-1.690;2023-12-20T12:22:46;59.04;53.56;64.51;;
41518;Laerm;27249;48.094;-1.690;2023-12-20T12:25:15;59.16;52.05;67.78;;
41518;Laerm;27249;48.094;-1.690;2023-12-20T12:27:41;58.56;50.84;72.21;;
41518;Laerm;27249;48.094;-1.690;2023-12-20T12:30:07;58.60;52.01;67.77;;
41518;Laerm;27249;48.094;-1.690;2023-12-20T12:32:33;58.42;51.35;65.07;;
41518;Laerm;27249;48.094;-1.690;2023-12-20T12:34:58;57.13;51.31;63.56;;
41518;Laerm;27249;48.094;-1.690;2023-12-20T12:37:24;58.71;52.03;70.47;;
41518;Laerm;27249;48.094;-1.690;2023-12-20T12:39:49;58.21;50.73;68.21;;
41518;Laerm;27249;48.094;-1.690;2023-12-20T12:42:14;58.89;54.06;66.01;;
41518;Laerm;27249;48.094;-1.690;2023-12-20T12:44:40;58.73;54.10;68.27;;
41518;Laerm;27249;48.094;-1.690;2023-12-20T12:47:05;58.76;52.41;71.19;;
41518;Laerm;27249;48.094;-1.690;2023-12-20T12:49:31;57.81;51.54;70.73;;
41518;Laerm;27249;48.094;-1.690;2023-12-20T12:51:56;59.14;53.66;64.21;;
41518;Laerm;27249;48.094;-1.690;2023-12-20T12:54:23;59.13;53.58;66.71;;
41518;Laerm;27249;48.094;-1.690;2023-12-20T12:56:48;57.66;52.79;64.36;;
41518;Laerm;27249;48.094;-1.690;2023-12-20T12:59:15;59.58;53.50;66.19;;
41518;Laerm;27249;48.094;-1.690;2023-12-20T13:01:40;57.81;51.62;74.75;;
41518;Laerm;27249;48.094;-1.690;2023-12-20T13:04:06;58.95;52.45;74.83;;
41518;Laerm;27249;48.094;-1.690;2023-12-20T13:06:35;58.12;53.23;64.75;;
41518;Laerm;27249;48.094;-1.690;2023-12-20T13:09:00;57.97;51.36;63.38;;
41518;Laerm;27249;48.094;-1.690;2023-12-20T13:11:25;59.34;53.28;66.92;;
41518;Laerm;27249;48.094;-1.690;2023-12-20T13:13:51;59.01;52.35;64.19;;
41518;Laerm;27249;48.094;-1.690;2023-12-20T13:16:16;57.84;51.87;63.43;;
41518;Laerm;27249;48.094;-1.690;2023-12-20T13:18:41;58.02;52.52;64.76;;
41518;Laerm;27249;48.094;-1.690;2023-12-20T13:21:07;59.38;52.44;66.04;;
41518;Laerm;27249;48.094;-1.690;2023-12-20T13:23:33;56.66;51.29;65.68;;
41518;Laerm;27249;48.094;-1.690;2023-12-20T13:25:58;58.21;53.11;65.88;;
41518;Laerm;27249;48.094;-1.690;2023-12-20T13:28:23;58.50;52.61;65.46;;
41518;Laerm;27249;48.094;-1.690;2023-12-20T13:30:48;57.67;50.41;63.07;;